Terminal Aerodrome Forecast
Issued by NWS

Home | Current Version | Previous Version | Text Only | Print | Product List | Glossary On
Versions: 1 2 3 4 5 6 7 8 9 10 11 12 13 14
224
FTUS46 KPDT 021738
TAFPSC
TAF
KPSC 021738Z 0218/0318 17004KT P6SM OVC120
     FM022000 20007KT P6SM VCSH BKN070 OVC100
     FM030000 21010KT P6SM VCSH BKN060 OVC250
     FM030600 22009KT P6SM SCT070 BKN250=

USA.gov is the U.S. government's official web portal to all federal, state and local government web resources and services.